Burgos, España

7:22 AM CET en Enero 26, 2015 (GMT +0100)
Villafria | Change Station
CLOSE
Current Station
Aeropuerto
Location: Burgos,
Altura: 2927 ft
Estaciones meteorológicas cercanas
Aviso en curso: Extreme low temperature

Alt 2927 ft 42.36 °N, 3.62 °W | Updated 22 minutes ago

Clear
Despejado
30 ° F
Sensación térmica 21 ° F
N
10
Viento Variable Viento desde NNE

Hoy
Alta -- | Baja -- ° F
--% Posibilidad de precipitaciones
Ayer
Alta -- | Baja -- ° F
Precip. -- pul
8:34 AM 6:20 PM
Creciente, 40% visible
Presión 30.39 pul
Visibilidad -9999.0 Millas
Nubes
Vientos helados 21 ° F
Punto de rocío 28 ° F
Humedad 93%
Precipitaciones 0.00 pul
Espesor de la nieve No disponible.
UV No disponible.
Polen No disponible.
Calidad del aire No disponible.
Flu Activity No disponible.
METAR LEBG 260600Z 03009KT CAVOK M01/M02 Q1029

More Conditions Fewer Conditions

Presión 30.39 pul
Visibilidad -9999.0 Millas
Nubes
Vientos helados 21 ° F
Punto de rocío 28 ° F
Humedad 93%
Precipitaciones 0.00 pul
Espesor de la nieve No disponible.
UV No disponible.
Polen No disponible.
Calidad del aire No disponible.
Flu Activity No disponible.
METAR LEBG 260600Z 03009KT CAVOK M01/M02 Q1029

More Conditions Fewer Conditions

10-Day Weather Forecast

Almanac

Astronomía

Jan. 26, 2015 Salida Puesta
Hora real
Crepúsculo civil
Crepúsculo náutico
Crepúsculo astronómico
Luna
Horas de luz
Horas de luz
Tomorrow will be .
, % of the Moon is Illuminated

Extremos de hoy

Máximos del país Bajas del país

Community

WunderPhotos

Upload Photos

1,790,157 ¡fotos cargadas!

WunderBlogs® & News

Nearby

Calidad del aire

  Calidad del aire Índice AQ Contaminante
Not available.

Grosos de nieve

Estación Profundido Altura

Actividad de terremotos

Ciudad Distance Mag. Tiempo y dato
Magnitud mínima muestra es 2,5.

Temperaturas de aguas costeras

Lugar Temperatura

Estaciones meteorológicas cercanas